Time;durP1;ratioP1;P1;durP2;ratioP2;P2;SDS_P1;SDS_P2;PMS_P1;PMS_P2;Temp;Humidity;BMP_temperature;BMP_pressure;BME280_temperature;BME280_humidity;BME280_pressure;Samples;Min_cycle;Max_cycle;Signal;HPM_P1;HPM_P2
2023/12/21 00:02:04;;;;;;;4.40;4.18;;;13.00;99.90;;;;;;5070941;28;20046;-94
2023/12/21 00:04:33;;;;;;;2.90;2.80;;;13.10;99.90;;;;;;5070126;28;20044;-95
2023/12/21 00:07:04;;;;;;;3.95;3.75;;;13.30;99.90;;;;;;5067741;28;20036;-95
2023/12/21 00:09:33;;;;;;;3.95;3.75;;;12.90;99.90;;;;;;5082092;28;20036;-94
2023/12/21 00:12:08;;;;;;;4.35;4.15;;;13.40;99.90;;;;;;5071846;28;20044;-95
2023/12/21 00:14:33;;;;;;;4.13;3.92;;;13.20;99.90;;;;;;5075839;28;20047;-93
2023/12/21 00:16:59;;;;;;;4.18;3.97;;;13.40;99.90;;;;;;5075164;28;20243;-94
2023/12/21 00:19:28;;;;;;;3.95;3.75;;;13.20;99.90;;;;;;5075907;28;20077;-94
2023/12/21 00:21:56;;;;;;;4.05;3.85;;;13.20;99.90;;;;;;5073145;28;20042;-95
2023/12/21 00:24:28;;;;;;;4.00;3.80;;;13.00;99.90;;;;;;5078576;28;20047;-94
2023/12/21 00:27:03;;;;;;;3.97;3.78;;;13.30;99.90;;;;;;5077471;28;20473;-92
2023/12/21 00:29:30;;;;;;;4.25;4.05;;;13.00;99.90;;;;;;5075702;28;20047;-92
2023/12/21 00:31:56;;;;;;;3.95;3.75;;;13.40;99.90;;;;;;5071625;28;20375;-95
2023/12/21 00:34:25;;;;;;;3.67;3.47;;;13.20;99.90;;;;;;5094276;28;20112;-94
2023/12/21 00:37:07;;;;;;;4.05;3.85;;;13.20;99.90;;;;;;5077703;28;20048;-95
2023/12/21 00:39:36;;;;;;;4.07;3.88;;;13.30;99.90;;;;;;5079052;28;20044;-94
2023/12/21 00:46:07;;;;;;;4.18;3.97;;;13.40;99.90;;;;;;5048093;28;20049;-96
2023/12/21 00:48:33;;;;;;;2.85;2.75;;;13.20;99.90;;;;;;5018044;28;20159;-94
2023/12/21 00:51:12;;;;;;;4.05;3.85;;;13.20;99.90;;;;;;5033885;28;20044;-96
2023/12/21 00:53:46;;;;;;;4.15;3.95;;;13.10;99.90;;;;;;5015715;28;20128;-94
2023/12/21 00:56:18;;;;;;;2.85;2.75;;;13.30;99.90;;;;;;5014275;28;20036;-95
2023/12/21 00:59:06;;;;;;;3.95;3.75;;;13.40;99.90;;;;;;5010256;28;20042;-96
2023/12/21 01:01:34;;;;;;;3.95;3.75;;;13.30;99.90;;;;;;5009911;28;20128;-93
2023/12/21 01:04:03;;;;;;;3.95;3.75;;;13.00;99.90;;;;;;5010233;28;21024;-93
2023/12/21 01:06:29;;;;;;;4.00;3.80;;;12.90;99.90;;;;;;5011878;28;20041;-96
2023/12/21 01:08:55;;;;;;;3.97;3.78;;;13.00;99.90;;;;;;5018505;28;20629;-96
2023/12/21 01:11:23;;;;;;;4.25;4.05;;;13.20;99.90;;;;;;5065373;28;20043;-94
2023/12/21 01:13:49;;;;;;;4.15;3.95;;;13.30;99.90;;;;;;5074013;28;20083;-91
2023/12/21 01:16:16;;;;;;;3.95;3.75;;;13.00;99.90;;;;;;5071156;28;20775;-91
2023/12/21 01:18:42;;;;;;;3.97;3.78;;;13.00;99.90;;;;;;5090782;28;20101;-91
2023/12/21 01:21:07;;;;;;;4.18;3.97;;;13.00;99.90;;;;;;5075766;28;20605;-93
2023/12/21 01:23:33;;;;;;;4.35;4.15;;;13.30;99.90;;;;;;5076207;28;20043;-92
2023/12/21 01:26:27;;;;;;;4.20;4.00;;;12.90;99.90;;;;;;5070729;28;20032;-92
2023/12/21 01:28:54;;;;;;;4.72;4.53;;;12.90;99.90;;;;;;5076241;28;20050;-94
2023/12/21 01:31:20;;;;;;;3.05;2.95;;;13.00;99.90;;;;;;5070755;28;20123;-93
2023/12/21 01:33:46;;;;;;;4.05;3.85;;;13.40;99.90;;;;;;5076667;28;20127;-94
2023/12/21 01:36:11;;;;;;;4.20;4.00;;;12.90;99.90;;;;;;5076230;28;20042;-94
2023/12/21 01:38:37;;;;;;;3.90;3.70;;;13.40;99.90;;;;;;5076657;28;20127;-92
2023/12/21 01:41:14;;;;;;;4.05;3.85;;;13.00;99.90;;;;;;5072123;28;20039;-93
2023/12/21 01:43:40;;;;;;;3.85;3.65;;;12.90;99.90;;;;;;5068750;28;20043;-95
2023/12/21 01:46:07;;;;;;;4.18;3.97;;;13.40;99.90;;;;;;5090105;28;20549;-93
2023/12/21 01:48:33;;;;;;;3.95;3.75;;;13.20;99.90;;;;;;5074802;27;20086;-91
2023/12/21 01:51:19;;;;;;;4.05;3.85;;;13.00;99.90;;;;;;5072629;28;20051;-95
2023/12/21 01:53:45;;;;;;;3.95;3.75;;;13.20;99.90;;;;;;5072669;27;20088;-93
2023/12/21 01:56:12;;;;;;;4.20;4.00;;;12.90;99.90;;;;;;5073798;28;20031;-92
2023/12/21 01:58:39;;;;;;;4.20;4.00;;;13.40;99.90;;;;;;5072258;28;20100;-94
2023/12/21 02:01:06;;;;;;;3.03;2.92;;;13.30;99.90;;;;;;5076225;28;20035;-94
2023/12/21 02:03:33;;;;;;;3.92;3.72;;;13.30;99.90;;;;;;5074989;28;20032;-95
2023/12/21 02:05:59;;;;;;;2.97;2.88;;;13.10;99.90;;;;;;5067456;28;21049;-91
2023/12/21 02:08:28;;;;;;;3.97;3.78;;;13.00;99.90;;;;;;5090748;28;20075;-93
2023/12/21 02:11:00;;;;;;;3.97;3.78;;;13.40;99.90;;;;;;5074811;28;20048;-93
2023/12/21 02:13:28;;;;;;;3.88;3.67;;;13.10;99.90;;;;;;5072531;28;20043;-93
2023/12/21 02:15:58;;;;;;;4.13;3.92;;;13.30;99.90;;;;;;5075351;27;20036;-92
2023/12/21 02:18:24;;;;;;;4.25;4.05;;;12.90;99.90;;;;;;5077023;28;20048;-94
2023/12/21 02:20:50;;;;;;;4.00;3.80;;;13.00;99.90;;;;;;5067477;28;20055;-91
2023/12/21 02:23:18;;;;;;;3.85;3.65;;;13.20;99.90;;;;;;5073708;28;20035;-92
2023/12/21 02:25:46;;;;;;;3.90;3.70;;;13.40;99.90;;;;;;5074638;28;20149;-93
2023/12/21 02:28:12;;;;;;;4.05;3.85;;;13.00;99.90;;;;;;5075135;28;20426;-92
2023/12/21 02:30:38;;;;;;;4.22;4.03;;;13.10;99.90;;;;;;5071604;28;20047;-92
2023/12/21 02:33:04;;;;;;;3.55;3.35;;;13.20;99.90;;;;;;5073623;28;20097;-93
2023/12/21 02:35:30;;;;;;;4.15;3.95;;;13.10;99.90;;;;;;5093168;28;20035;-92
2023/12/21 02:37:59;;;;;;;4.15;3.95;;;13.10;99.90;;;;;;5074476;28;20123;-93
2023/12/21 02:40:24;;;;;;;4.15;3.95;;;13.30;99.90;;;;;;5072571;28;20071;-91
2023/12/21 02:42:50;;;;;;;4.05;3.85;;;13.10;99.90;;;;;;5073296;28;20423;-91
2023/12/21 02:45:16;;;;;;;4.25;4.05;;;13.30;99.90;;;;;;5073833;28;20069;-93
2023/12/21 02:47:42;;;;;;;4.28;4.07;;;13.00;99.90;;;;;;5070043;28;20043;-92
2023/12/21 02:50:08;;;;;;;3.00;2.90;;;13.30;99.90;;;;;;5073389;28;20043;-93
2023/12/21 02:52:33;;;;;;;4.35;4.15;;;13.40;99.90;;;;;;5073917;27;20039;-93
2023/12/21 02:54:59;;;;;;;4.07;3.88;;;13.30;99.90;;;;;;5073756;28;20163;-95
2023/12/21 02:57:25;;;;;;;4.20;4.00;;;12.90;99.90;;;;;;5069865;28;20180;-94
2023/12/21 02:59:51;;;;;;;4.18;3.97;;;13.00;99.90;;;;;;5068040;28;20489;-92
2023/12/21 03:02:17;;;;;;;4.00;3.80;;;13.40;99.90;;;;;;5067977;28;20493;-92
2023/12/21 03:04:42;;;;;;;4.25;4.05;;;13.00;99.90;;;;;;5065820;28;20039;-89
2023/12/21 03:07:11;;;;;;;3.90;3.70;;;12.90;99.90;;;;;;5070143;28;20051;-91
2023/12/21 03:09:36;;;;;;;4.05;3.85;;;12.90;99.90;;;;;;5067234;28;20050;-89
2023/12/21 03:12:02;;;;;;;3.67;3.47;;;13.20;99.90;;;;;;5089826;28;20396;-91
2023/12/21 03:14:28;;;;;;;4.07;3.88;;;13.30;99.90;;;;;;5069939;28;20050;-90
2023/12/21 03:16:54;;;;;;;4.25;4.05;;;12.80;99.90;;;;;;5073352;27;20086;-93
2023/12/21 03:19:19;;;;;;;3.70;3.50;;;13.30;99.90;;;;;;5087749;28;20044;-89
2023/12/21 03:21:46;;;;;;;4.05;3.85;;;13.30;99.90;;;;;;5069078;28;20047;-91
2023/12/21 03:24:12;;;;;;;3.92;3.72;;;12.70;99.90;;;;;;5074511;28;20489;-90
2023/12/21 03:26:37;;;;;;;4.13;3.92;;;12.80;99.90;;;;;;5073982;28;20126;-90
2023/12/21 03:29:03;;;;;;;4.15;3.95;;;13.00;99.90;;;;;;5076061;28;20435;-89
2023/12/21 03:31:29;;;;;;;4.25;4.05;;;13.40;99.90;;;;;;5087422;28;20043;-92
2023/12/21 03:33:54;;;;;;;4.15;3.95;;;12.90;99.90;;;;;;5071829;28;20119;-88
2023/12/21 03:36:20;;;;;;;4.05;3.85;;;13.30;99.90;;;;;;5073768;28;20043;-89
2023/12/21 03:38:46;;;;;;;3.88;3.67;;;13.20;99.90;;;;;;5087885;28;20677;-87
2023/12/21 03:41:11;;;;;;;3.85;3.65;;;12.90;99.90;;;;;;5070933;28;20051;-88
2023/12/21 03:43:37;;;;;;;3.97;3.78;;;12.90;99.90;;;;;;5065171;28;20076;-91
2023/12/21 03:46:07;;;;;;;3.95;3.75;;;13.00;99.90;;;;;;5084902;28;20068;-90
2023/12/21 03:48:32;;;;;;;3.95;3.75;;;13.40;99.90;;;;;;5071605;28;20074;-89
2023/12/21 03:50:58;;;;;;;4.00;3.80;;;13.40;99.90;;;;;;5070866;28;20044;-92
2023/12/21 03:53:24;;;;;;;3.85;3.65;;;13.40;99.90;;;;;;5073288;28;20131;-90
2023/12/21 03:55:50;;;;;;;3.90;3.70;;;13.30;99.90;;;;;;5072648;28;20352;-91
2023/12/21 03:58:15;;;;;;;3.72;3.53;;;13.40;99.90;;;;;;5069286;28;20044;-90
2023/12/21 04:00:41;;;;;;;3.88;3.67;;;13.40;99.90;;;;;;5071453;28;20051;-90
2023/12/21 04:03:07;;;;;;;3.75;3.55;;;12.90;99.90;;;;;;5083662;28;20075;-90
2023/12/21 04:05:32;;;;;;;2.83;2.72;;;13.00;99.90;;;;;;5069091;28;20044;-90
2023/12/21 04:07:58;;;;;;;3.95;3.75;;;12.90;99.90;;;;;;5068358;28;20255;-89
2023/12/21 04:10:24;;;;;;;3.88;3.67;;;13.40;99.90;;;;;;5086699;28;20047;-88
2023/12/21 04:12:49;;;;;;;4.25;4.05;;;12.90;99.90;;;;;;5067994;28;20143;-91
2023/12/21 04:15:21;;;;;;;4.05;3.85;;;13.30;99.90;;;;;;5087267;28;20036;-90
2023/12/21 04:17:47;;;;;;;4.05;3.85;;;13.20;99.90;;;;;;5072012;28;20048;-89
2023/12/21 04:20:13;;;;;;;3.72;3.53;;;13.50;99.90;;;;;;5071458;28;20831;-91
2023/12/21 04:22:38;;;;;;;4.07;3.88;;;12.90;99.90;;;;;;5072454;28;20039;-90
2023/12/21 04:25:04;;;;;;;3.10;3.00;;;12.80;99.90;;;;;;5071001;28;20048;-87
2023/12/21 04:27:30;;;;;;;3.67;3.47;;;13.10;99.90;;;;;;5072104;28;20039;-90
2023/12/21 04:29:56;;;;;;;4.07;3.88;;;12.80;99.90;;;;;;5078677;28;20043;-92
2023/12/21 04:32:21;;;;;;;3.90;3.70;;;13.10;99.90;;;;;;5070793;28;20040;-94
2023/12/21 04:34:47;;;;;;;3.97;3.78;;;13.50;99.90;;;;;;5072263;28;20056;-92
2023/12/21 04:37:13;;;;;;;2.95;2.85;;;13.50;99.90;;;;;;5073950;28;20101;-94
2023/12/21 04:39:41;;;;;;;3.85;3.65;;;13.50;99.90;;;;;;5070918;28;20047;-92
2023/12/21 04:42:07;;;;;;;3.90;3.70;;;13.30;99.90;;;;;;5071867;28;20050;-88
2023/12/21 04:44:33;;;;;;;2.83;2.72;;;13.50;99.90;;;;;;5086948;28;20040;-90
2023/12/21 04:46:59;;;;;;;3.95;3.75;;;13.30;99.90;;;;;;5071755;28;20470;-91
2023/12/21 04:49:26;;;;;;;3.78;3.58;;;12.80;99.90;;;;;;5074921;28;20082;-93
2023/12/21 04:51:52;;;;;;;4.05;3.85;;;12.90;99.90;;;;;;5079095;27;20120;-91
2023/12/21 04:54:18;;;;;;;3.78;3.58;;;13.50;99.90;;;;;;5074863;28;20489;-90
2023/12/21 04:56:44;;;;;;;3.88;3.67;;;12.80;99.90;;;;;;5077424;28;20074;-89
2023/12/21 04:59:12;;;;;;;4.15;3.95;;;13.40;99.90;;;;;;5074841;28;20054;-92
2023/12/21 05:01:38;;;;;;;2.80;2.70;;;13.40;99.90;;;;;;5074261;28;20451;-90
2023/12/21 05:04:06;;;;;;;4.10;3.90;;;13.50;99.90;;;;;;5074888;28;20035;-91
2023/12/21 05:06:31;;;;;;;3.95;3.75;;;13.40;99.90;;;;;;5072770;28;20039;-87
2023/12/21 05:09:01;;;;;;;3.78;3.58;;;13.20;99.90;;;;;;5074494;28;20050;-93
2023/12/21 05:11:27;;;;;;;3.88;3.67;;;12.90;99.90;;;;;;5089226;27;20048;-92
2023/12/21 05:13:53;;;;;;;3.85;3.65;;;13.00;99.90;;;;;;5074693;27;20520;-88
2023/12/21 05:16:19;;;;;;;4.00;3.80;;;13.50;99.90;;;;;;5070436;27;20051;-90
2023/12/21 05:18:47;;;;;;;4.18;3.97;;;13.00;99.90;;;;;;5067272;28;20057;-90
2023/12/21 05:21:13;;;;;;;4.18;3.97;;;12.90;99.90;;;;;;5074853;28;20043;-89
2023/12/21 05:23:40;;;;;;;3.78;3.58;;;13.00;99.90;;;;;;5073462;27;20039;-87
2023/12/21 05:26:13;;;;;;;3.97;3.78;;;13.10;99.90;;;;;;5090135;28;20050;-90
2023/12/21 05:28:41;;;;;;;2.92;2.83;;;13.50;99.90;;;;;;5071489;28;20044;-91
2023/12/21 05:31:08;;;;;;;3.95;3.75;;;12.90;99.90;;;;;;5072408;28;20081;-92
2023/12/21 05:33:33;;;;;;;4.07;3.88;;;13.50;99.90;;;;;;5071854;28;20043;-90
2023/12/21 05:35:59;;;;;;;4.18;3.97;;;13.40;99.90;;;;;;5091171;28;20077;-89
2023/12/21 05:38:25;;;;;;;3.97;3.78;;;13.20;99.90;;;;;;5075949;28;20380;-90
2023/12/21 05:40:50;;;;;;;3.88;3.67;;;12.90;99.90;;;;;;5070258;28;20052;-89
2023/12/21 05:43:17;;;;;;;4.05;3.85;;;13.30;99.90;;;;;;5075516;28;20097;-89
2023/12/21 05:45:42;;;;;;;4.05;3.85;;;13.40;99.90;;;;;;5075169;28;20122;-90
2023/12/21 05:48:15;;;;;;;3.97;3.78;;;13.00;99.90;;;;;;5073873;28;20467;-92
2023/12/21 05:50:41;;;;;;;4.10;3.90;;;13.40;99.90;;;;;;5088681;28;20497;-88
2023/12/21 05:53:07;;;;;;;3.97;3.78;;;12.90;99.90;;;;;;5068325;28;20050;-87
2023/12/21 05:55:33;;;;;;;3.97;3.78;;;13.00;99.90;;;;;;5072998;27;20055;-88
2023/12/21 05:57:58;;;;;;;4.22;4.03;;;13.10;99.90;;;;;;5072279;27;20047;-90
2023/12/21 06:00:24;;;;;;;4.35;4.15;;;13.00;99.90;;;;;;5070557;28;20132;-91
2023/12/21 06:02:50;;;;;;;3.85;3.65;;;13.60;99.90;;;;;;5074119;27;20058;-89
2023/12/21 06:05:17;;;;;;;4.15;3.95;;;13.50;99.90;;;;;;5087162;28;20078;-89
2023/12/21 06:07:42;;;;;;;4.18;3.97;;;13.00;99.90;;;;;;5069595;28;20031;-90
2023/12/21 06:10:08;;;;;;;4.20;4.00;;;13.30;99.90;;;;;;5089327;28;20050;-90
2023/12/21 06:12:34;;;;;;;3.90;3.70;;;13.20;99.90;;;;;;5070962;28;20149;-92
2023/12/21 06:15:04;;;;;;;4.30;4.10;;;13.40;99.90;;;;;;5072238;28;20475;-90
2023/12/21 06:17:30;;;;;;;3.75;3.55;;;13.10;99.90;;;;;;5067229;28;20036;-89
2023/12/21 06:19:56;;;;;;;4.07;3.88;;;13.40;99.90;;;;;;5068940;28;20690;-92
2023/12/21 06:22:25;;;;;;;4.07;3.88;;;13.00;99.90;;;;;;5072585;28;20090;-92
2023/12/21 06:24:50;;;;;;;4.18;3.97;;;13.50;99.90;;;;;;5074054;28;20485;-89
2023/12/21 06:27:19;;;;;;;4.18;3.97;;;13.20;99.90;;;;;;5072025;28;20089;-94
2023/12/21 06:29:57;;;;;;;4.05;3.85;;;13.40;99.90;;;;;;5070137;28;20043;-93
2023/12/21 06:32:24;;;;;;;3.22;3.10;;;13.20;99.90;;;;;;5103553;27;20050;-89
2023/12/21 06:34:50;;;;;;;4.15;3.95;;;13.20;99.90;;;;;;5071310;28;20051;-89
2023/12/21 06:37:18;;;;;;;3.80;3.60;;;13.10;99.90;;;;;;5074210;28;20036;-91
2023/12/21 06:39:44;;;;;;;4.13;3.92;;;13.10;99.90;;;;;;5070878;28;20515;-89
2023/12/21 06:42:10;;;;;;;4.18;3.97;;;13.50;99.90;;;;;;5074424;28;20122;-90
2023/12/21 06:44:36;;;;;;;4.28;4.07;;;13.20;99.90;;;;;;5073999;28;20079;-90
2023/12/21 06:47:02;;;;;;;3.10;3.00;;;13.60;99.90;;;;;;5068032;28;20047;-91
2023/12/21 06:49:28;;;;;;;4.00;3.80;;;13.50;99.90;;;;;;5070367;28;20047;-87
2023/12/21 06:51:54;;;;;;;4.18;3.97;;;13.30;99.90;;;;;;5068259;28;20054;-88
2023/12/21 06:54:19;;;;;;;4.03;3.83;;;13.20;99.90;;;;;;5071675;27;20074;-89
2023/12/21 06:56:45;;;;;;;4.20;4.00;;;13.40;99.90;;;;;;5071130;28;20709;-92
2023/12/21 06:59:12;;;;;;;4.07;3.88;;;13.30;99.90;;;;;;5070613;28;20044;-91
2023/12/21 07:01:37;;;;;;;4.03;3.83;;;13.50;99.90;;;;;;5073608;28;20057;-87
2023/12/21 07:04:03;;;;;;;3.90;3.70;;;13.50;99.90;;;;;;5067767;28;20048;-86
2023/12/21 07:06:29;;;;;;;4.15;3.95;;;13.50;99.90;;;;;;5072152;28;20512;-88
2023/12/21 07:08:55;;;;;;;3.97;3.78;;;13.50;99.90;;;;;;5070908;28;20035;-87
2023/12/21 07:11:21;;;;;;;4.10;3.90;;;13.30;99.90;;;;;;5068980;28;20059;-87
2023/12/21 07:13:47;;;;;;;4.28;4.07;;;13.40;99.90;;;;;;5071693;28;20045;-91
2023/12/21 07:16:13;;;;;;;4.25;4.05;;;13.30;99.90;;;;;;5068221;28;20061;-90
2023/12/21 07:18:41;;;;;;;3.83;3.63;;;13.50;99.90;;;;;;5070912;28;20466;-92
2023/12/21 07:21:07;;;;;;;3.88;3.67;;;13.60;99.90;;;;;;5072181;28;20043;-93
2023/12/21 07:23:33;;;;;;;3.80;3.60;;;13.20;99.90;;;;;;5069746;28;20036;-87
2023/12/21 07:25:59;;;;;;;3.95;3.75;;;13.20;99.90;;;;;;5086434;28;20043;-92
2023/12/21 07:28:28;;;;;;;3.97;3.78;;;13.60;99.90;;;;;;5074173;28;20071;-88
2023/12/21 07:30:53;;;;;;;4.00;3.80;;;13.50;99.90;;;;;;5068112;28;20103;-86
2023/12/21 07:33:19;;;;;;;4.07;3.88;;;13.60;99.90;;;;;;5088220;28;20044;-89
2023/12/21 07:35:45;;;;;;;4.10;3.90;;;13.20;99.90;;;;;;5072517;28;20043;-87
2023/12/21 07:38:11;;;;;;;4.15;3.95;;;13.20;99.90;;;;;;5086285;28;20084;-89
2023/12/21 07:40:37;;;;;;;3.88;3.67;;;13.10;99.90;;;;;;5086590;28;20039;-85
2023/12/21 07:43:03;;;;;;;4.00;3.80;;;13.60;99.90;;;;;;5087519;28;20104;-89
2023/12/21 07:45:29;;;;;;;3.88;3.67;;;13.50;99.90;;;;;;5087996;28;20111;-87
2023/12/21 07:47:54;;;;;;;4.07;3.88;;;13.60;99.90;;;;;;5087160;28;20048;-87
2023/12/21 07:50:20;;;;;;;3.80;3.60;;;13.70;99.90;;;;;;5088390;28;20096;-94
2023/12/21 07:52:46;;;;;;;3.88;3.67;;;13.40;99.90;;;;;;5070094;28;20048;-92
2023/12/21 07:55:12;;;;;;;3.97;3.78;;;13.30;99.90;;;;;;5067477;28;20139;-88
2023/12/21 07:57:37;;;;;;;3.88;3.67;;;13.30;99.90;;;;;;5085000;28;20032;-88
2023/12/21 08:00:04;;;;;;;3.60;3.40;;;13.20;99.90;;;;;;5085739;28;20054;-87
2023/12/21 08:02:29;;;;;;;3.00;2.90;;;13.20;99.90;;;;;;5085480;28;20047;-87
2023/12/21 08:04:55;;;;;;;4.25;4.05;;;13.20;99.90;;;;;;5068171;28;20062;-90
2023/12/21 08:07:21;;;;;;;4.00;3.80;;;13.70;99.90;;;;;;5081649;28;20054;-86
2023/12/21 08:09:46;;;;;;;3.67;3.47;;;13.60;99.90;;;;;;5086523;28;20046;-87
2023/12/21 08:12:15;;;;;;;3.92;3.72;;;13.80;99.90;;;;;;5082864;28;20052;-91
2023/12/21 08:14:41;;;;;;;3.83;3.63;;;13.30;99.90;;;;;;5068469;28;20044;-87
2023/12/21 08:17:10;;;;;;;4.00;3.80;;;13.60;99.90;;;;;;5070417;28;20050;-87
2023/12/21 08:19:38;;;;;;;4.07;3.88;;;13.70;99.90;;;;;;5082192;28;20485;-87
2023/12/21 08:22:04;;;;;;;4.35;4.15;;;13.70;99.90;;;;;;5069498;28;20040;-87
2023/12/21 08:24:31;;;;;;;3.70;3.50;;;13.40;99.90;;;;;;5085415;28;20057;-85
2023/12/21 08:26:57;;;;;;;4.18;3.97;;;13.40;99.90;;;;;;5086640;28;20051;-89
2023/12/21 08:29:23;;;;;;;4.18;3.97;;;13.40;99.90;;;;;;5071909;28;20229;-91
2023/12/21 08:31:49;;;;;;;4.07;3.88;;;13.70;99.90;;;;;;5071091;28;20047;-86
2023/12/21 08:34:15;;;;;;;3.45;3.25;;;13.80;99.90;;;;;;5070452;28;20043;-84
2023/12/21 08:36:40;;;;;;;4.15;3.95;;;13.70;99.90;;;;;;5089832;28;20047;-88
2023/12/21 08:39:06;;;;;;;3.67;3.47;;;13.70;99.90;;;;;;5074623;28;20136;-88
2023/12/21 08:41:32;;;;;;;3.85;3.65;;;13.80;99.90;;;;;;5071742;28;20051;-88
2023/12/21 08:43:57;;;;;;;4.00;3.80;;;13.20;99.90;;;;;;5090797;28;20516;-92
2023/12/21 08:46:23;;;;;;;4.07;3.88;;;13.90;99.90;;;;;;5073031;28;20050;-85
2023/12/21 08:48:49;;;;;;;4.28;4.07;;;13.50;99.90;;;;;;5087570;28;20050;-84
2023/12/21 08:51:16;;;;;;;3.90;3.70;;;13.50;99.90;;;;;;5074700;28;20044;-88
2023/12/21 08:53:44;;;;;;;3.88;3.67;;;13.70;99.90;;;;;;5068921;28;20095;-86
2023/12/21 08:56:10;;;;;;;4.05;3.85;;;13.60;99.90;;;;;;5072140;28;20480;-87
2023/12/21 08:58:36;;;;;;;3.90;3.70;;;13.60;99.90;;;;;;5071531;28;20036;-86
2023/12/21 09:01:05;;;;;;;3.78;3.58;;;13.90;99.90;;;;;;5086098;28;20058;-87
2023/12/21 09:03:33;;;;;;;3.80;3.60;;;14.00;99.90;;;;;;5066822;28;20043;-93
2023/12/21 09:05:59;;;;;;;3.88;3.67;;;13.40;99.90;;;;;;5088768;28;20039;-90
2023/12/21 09:08:26;;;;;;;3.88;3.67;;;14.00;99.90;;;;;;5064064;28;20104;-89
2023/12/21 09:10:52;;;;;;;3.92;3.72;;;13.60;99.90;;;;;;5073104;28;20047;-94
2023/12/21 09:13:18;;;;;;;3.97;3.78;;;13.80;99.90;;;;;;5067792;28;20052;-92
2023/12/21 09:15:43;;;;;;;3.80;3.60;;;13.80;99.90;;;;;;5088047;28;20097;-87
2023/12/21 09:18:12;;;;;;;4.10;3.90;;;13.80;99.90;;;;;;5068352;28;20044;-93
2023/12/21 09:20:38;;;;;;;3.33;3.13;;;14.10;99.90;;;;;;5066992;28;20540;-86
2023/12/21 09:23:03;;;;;;;3.45;3.25;;;14.10;99.90;;;;;;5086347;28;20047;-87
2023/12/21 09:25:32;;;;;;;4.07;3.88;;;13.70;99.90;;;;;;5087712;28;20130;-90
2023/12/21 09:27:58;;;;;;;3.63;3.42;;;13.90;99.90;;;;;;5088927;28;20064;-86
2023/12/21 09:30:26;;;;;;;4.07;3.88;;;14.20;99.90;;;;;;5090897;28;20457;-90
2023/12/21 09:32:51;;;;;;;4.07;3.88;;;14.20;99.90;;;;;;5089081;28;20071;-94
2023/12/21 09:35:18;;;;;;;4.03;3.83;;;14.20;99.90;;;;;;5072823;28;20132;-91
2023/12/21 09:37:45;;;;;;;3.83;3.63;;;13.90;99.90;;;;;;5071184;28;20040;-90
2023/12/21 09:40:12;;;;;;;4.28;4.07;;;14.00;99.90;;;;;;5088113;28;20070;-87
2023/12/21 09:42:44;;;;;;;3.97;3.78;;;14.10;99.90;;;;;;5089718;28;20636;-87
2023/12/21 09:45:11;;;;;;;5.00;4.78;;;13.70;99.90;;;;;;5073831;28;20046;-88
2023/12/21 09:47:39;;;;;;;4.03;3.83;;;13.70;99.90;;;;;;5071049;28;20043;-90
2023/12/21 09:50:07;;;;;;;4.65;4.45;;;13.90;99.90;;;;;;5070719;28;20115;-86
2023/12/21 09:52:37;;;;;;;3.90;3.70;;;13.80;99.90;;;;;;5070807;28;20047;-87
2023/12/21 09:55:06;;;;;;;3.88;3.67;;;14.10;99.90;;;;;;5086640;28;20039;-91
2023/12/21 09:57:53;;;;;;;4.00;3.80;;;13.80;99.90;;;;;;5075744;28;20126;-92
2023/12/21 10:00:22;;;;;;;3.88;3.67;;;13.80;99.90;;;;;;5075069;28;20040;-92
2023/12/21 10:02:47;;;;;;;3.97;3.78;;;14.30;99.90;;;;;;5073325;28;20047;-89
2023/12/21 10:05:13;;;;;;;4.68;4.45;;;14.20;99.90;;;;;;5090055;28;20150;-90
2023/12/21 10:07:42;;;;;;;3.88;3.67;;;13.90;99.90;;;;;;5090984;28;20093;-95
2023/12/21 10:10:09;;;;;;;3.92;3.72;;;13.90;99.90;;;;;;5093162;28;20079;-92
2023/12/21 10:12:41;;;;;;;4.20;4.00;;;14.10;99.90;;;;;;5074782;28;20044;-96
2023/12/21 10:15:10;;;;;;;4.15;3.95;;;14.20;99.90;;;;;;5073848;28;20032;-86
2023/12/21 10:17:36;;;;;;;3.75;3.55;;;14.30;99.90;;;;;;5072284;28;20058;-86
2023/12/21 10:20:03;;;;;;;4.80;4.60;;;14.00;99.90;;;;;;5070010;28;20047;-84
2023/12/21 10:22:29;;;;;;;3.95;3.75;;;14.00;99.90;;;;;;5090977;28;20047;-85
2023/12/21 10:24:55;;;;;;;3.95;3.75;;;14.50;99.90;;;;;;5090827;28;20044;-92
2023/12/21 10:27:25;;;;;;;3.72;3.53;;;14.40;99.90;;;;;;5070884;28;20040;-89
2023/12/21 10:29:55;;;;;;;3.38;3.17;;;14.20;99.90;;;;;;5107094;28;20040;-90
2023/12/21 10:32:22;;;;;;;3.67;3.47;;;14.60;99.90;;;;;;5074056;28;20073;-86
2023/12/21 10:34:53;;;;;;;3.90;3.70;;;14.30;99.90;;;;;;5071730;28;20154;-92
2023/12/21 10:37:20;;;;;;;3.85;3.65;;;14.40;99.90;;;;;;5073345;28;20057;-86
2023/12/21 10:39:46;;;;;;;3.85;3.65;;;14.50;99.90;;;;;;5072083;28;20046;-84
2023/12/21 10:42:19;;;;;;;4.10;3.90;;;14.60;99.90;;;;;;5088743;28;20452;-87
2023/12/21 10:44:56;;;;;;;4.28;4.07;;;14.60;99.90;;;;;;5075306;28;20074;-93
2023/12/21 10:47:22;;;;;;;3.85;3.65;;;14.50;99.90;;;;;;5070433;28;20127;-92
2023/12/21 10:49:57;;;;;;;3.53;3.33;;;14.70;99.90;;;;;;5089652;28;20189;-94
2023/12/21 10:52:24;;;;;;;3.20;3.08;;;14.80;99.90;;;;;;5067485;28;20093;-87
2023/12/21 10:54:51;;;;;;;3.63;3.42;;;14.90;99.90;;;;;;5085792;28;20051;-90
2023/12/21 10:57:17;;;;;;;3.67;3.47;;;15.00;99.90;;;;;;5088655;28;20093;-86
2023/12/21 10:59:48;;;;;;;4.18;3.97;;;15.00;99.90;;;;;;5071986;28;20087;-91
2023/12/21 11:02:14;;;;;;;3.70;3.50;;;15.00;99.90;;;;;;5072975;28;20501;-88
2023/12/21 11:04:42;;;;;;;4.05;3.85;;;15.00;99.90;;;;;;5072147;28;20071;-94
2023/12/21 11:07:09;;;;;;;3.95;3.75;;;14.90;99.90;;;;;;5077106;28;20043;-85
2023/12/21 11:09:45;;;;;;;4.03;3.83;;;14.90;99.90;;;;;;5075559;28;20115;-92
2023/12/21 11:12:23;;;;;;;4.88;4.65;;;15.00;99.90;;;;;;5070853;28;20556;-90
2023/12/21 11:14:49;;;;;;;3.88;3.67;;;14.90;99.90;;;;;;5069761;28;20218;-90
2023/12/21 11:17:19;;;;;;;3.78;3.58;;;15.10;99.90;;;;;;5076089;28;20051;-92
2023/12/21 11:19:47;;;;;;;4.05;3.85;;;15.20;99.90;;;;;;5071340;28;20035;-90
2023/12/21 11:22:13;;;;;;;4.35;4.15;;;15.20;99.90;;;;;;5075406;28;20076;-89
2023/12/21 11:24:48;;;;;;;3.78;3.58;;;15.30;99.90;;;;;;5077397;28;20126;-89
2023/12/21 11:27:17;;;;;;;4.07;3.88;;;15.20;99.90;;;;;;5090594;28;20046;-95
2023/12/21 11:29:44;;;;;;;4.68;4.47;;;15.20;99.90;;;;;;5087370;28;20044;-91
2023/12/21 11:32:09;;;;;;;5.25;4.95;;;15.20;99.90;;;;;;5076193;28;20040;-94
2023/12/21 11:34:41;;;;;;;4.78;4.55;;;15.20;99.90;;;;;;5074147;28;20046;-95
2023/12/21 11:37:34;;;;;;;4.90;4.65;;;15.10;99.90;;;;;;5073574;28;20070;-96
2023/12/21 11:40:04;;;;;;;4.60;4.40;;;15.20;99.90;;;;;;5068549;28;20132;-95
2023/12/21 11:42:54;;;;;;;4.90;4.65;;;15.30;99.90;;;;;;5073904;28;20053;-93
2023/12/21 11:45:37;;;;;;;;;;;15.30;99.90;;;;;;5091257;28;20058;-89
2023/12/21 11:48:10;;;;;;;4.20;4.00;;;15.20;99.90;;;;;;5074778;28;19920;-91
2023/12/21 11:50:48;;;;;;;4.07;3.88;;;15.30;99.90;;;;;;5074107;28;20092;-95
2023/12/21 11:53:18;;;;;;;5.47;5.18;;;15.30;99.90;;;;;;5058400;28;20086;-91
2023/12/21 11:55:44;;;;;;;5.57;5.28;;;15.20;99.90;;;;;;5093042;28;20079;-88
2023/12/21 11:58:19;;;;;;;5.57;5.28;;;15.10;99.90;;;;;;5078492;28;20099;-96
2023/12/21 12:00:58;;;;;;;4.65;4.45;;;15.10;99.90;;;;;;5074907;28;20044;-94
2023/12/21 12:03:33;;;;;;;5.57;5.28;;;15.20;99.90;;;;;;5089010;28;20090;-95
2023/12/21 12:06:06;;;;;;;5.93;5.63;;;15.10;99.90;;;;;;5079564;28;20048;-95
2023/12/21 12:09:03;;;;;;;4.25;4.05;;;15.20;99.90;;;;;;5076202;28;20134;-94
2023/12/21 12:11:32;;;;;;;4.28;4.07;;;15.20;99.90;;;;;;5084052;28;20058;-89
2023/12/21 12:13:58;;;;;;;4.30;4.10;;;15.20;99.90;;;;;;5074612;28;20047;-92
2023/12/21 12:16:24;;;;;;;4.38;4.18;;;15.20;99.90;;;;;;5077401;28;20044;-89
2023/12/21 12:18:50;;;;;;;4.13;3.92;;;15.20;99.90;;;;;;5081836;28;20101;-94
2023/12/21 12:21:18;;;;;;;4.18;3.97;;;15.20;99.90;;;;;;5096783;28;20058;-89
2023/12/21 12:24:01;;;;;;;4.18;3.97;;;15.20;99.90;;;;;;5076352;28;20043;-89
2023/12/21 12:26:38;;;;;;;4.00;3.80;;;15.20;99.90;;;;;;5089513;28;20103;-93
2023/12/21 12:29:07;;;;;;;4.28;4.07;;;15.30;99.90;;;;;;5092867;28;20043;-93
2023/12/21 12:31:33;;;;;;;5.38;5.07;;;15.20;99.90;;;;;;5072945;28;20455;-84
2023/12/21 12:34:19;;;;;;;4.05;3.85;;;15.20;99.90;;;;;;5095693;28;20152;-93
2023/12/21 12:36:54;;;;;;;4.38;4.18;;;15.30;99.90;;;;;;5082588;28;20048;-93
2023/12/21 12:39:27;;;;;;;3.60;3.40;;;15.30;99.90;;;;;;5078301;28;20050;-92
2023/12/21 12:42:09;;;;;;;4.30;4.10;;;15.30;99.90;;;;;;5088491;28;20164;-91
2023/12/21 12:45:07;;;;;;;4.57;4.38;;;15.30;99.90;;;;;;5084139;28;20445;-96
2023/12/21 12:47:37;;;;;;;4.38;4.18;;;15.50;99.90;;;;;;5046776;28;20058;-90
2023/12/21 12:50:20;;;;;;;4.65;4.45;;;15.40;99.90;;;;;;5081708;28;20093;-96
2023/12/21 12:52:46;;;;;;;4.30;4.10;;;15.40;99.90;;;;;;5079825;28;20134;-88
2023/12/21 12:55:21;;;;;;;5.60;5.30;;;15.40;99.90;;;;;;5076135;28;20142;-90
2023/12/21 12:57:55;;;;;;;5.70;5.40;;;15.30;99.90;;;;;;5076892;28;20052;-91